sensor_id;sensor_type;location;lat;lon;timestamp;temperature;humidity
4739;DHT22;2383;48.632;10.156;2022-12-08T00:01:41;8.90;95.30
4739;DHT22;2383;48.632;10.156;2022-12-08T00:05:44;8.80;95.50
4739;DHT22;2383;48.632;10.156;2022-12-08T00:10:05;8.80;95.50
4739;DHT22;2383;48.632;10.156;2022-12-08T00:14:32;8.70;95.70
4739;DHT22;2383;48.632;10.156;2022-12-08T00:18:34;8.80;95.70
4739;DHT22;2383;48.632;10.156;2022-12-08T00:22:36;8.90;95.40
4739;DHT22;2383;48.632;10.156;2022-12-08T00:26:38;8.90;95.50
4739;DHT22;2383;48.632;10.156;2022-12-08T00:30:40;8.80;95.50
4739;DHT22;2383;48.632;10.156;2022-12-08T00:34:42;8.80;95.50
4739;DHT22;2383;48.632;10.156;2022-12-08T00:38:44;8.80;95.30
4739;DHT22;2383;48.632;10.156;2022-12-08T00:42:47;9.00;95.40
4739;DHT22;2383;48.632;10.156;2022-12-08T00:46:49;8.60;95.30
4739;DHT22;2383;48.632;10.156;2022-12-08T00:50:51;8.60;95.40
4739;DHT22;2383;48.632;10.156;2022-12-08T00:54:52;8.80;95.40
4739;DHT22;2383;48.632;10.156;2022-12-08T00:58:54;8.60;95.40
4739;DHT22;2383;48.632;10.156;2022-12-08T01:02:56;7.80;95.90
4739;DHT22;2383;48.632;10.156;2022-12-08T01:06:58;8.20;95.90
4739;DHT22;2383;48.632;10.156;2022-12-08T01:11:09;8.10;95.60
4739;DHT22;2383;48.632;10.156;2022-12-08T01:15:11;8.00;95.60
4739;DHT22;2383;48.632;10.156;2022-12-08T01:19:14;8.00;95.50
4739;DHT22;2383;48.632;10.156;2022-12-08T01:23:16;8.00;95.20
4739;DHT22;2383;48.632;10.156;2022-12-08T01:27:18;7.90;95.00
4739;DHT22;2383;48.632;10.156;2022-12-08T01:31:21;8.10;95.20
4739;DHT22;2383;48.632;10.156;2022-12-08T01:35:23;7.60;94.90
4739;DHT22;2383;48.632;10.156;2022-12-08T01:39:25;7.50;95.20
4739;DHT22;2383;48.632;10.156;2022-12-08T01:43:49;7.50;95.10
4739;DHT22;2383;48.632;10.156;2022-12-08T01:48:01;7.50;95.10
4739;DHT22;2383;48.632;10.156;2022-12-08T01:52:14;7.30;94.80
4739;DHT22;2383;48.632;10.156;2022-12-08T01:56:26;7.10;94.90
4739;DHT22;2383;48.632;10.156;2022-12-08T02:00:28;7.00;95.10
4739;DHT22;2383;48.632;10.156;2022-12-08T02:04:30;7.10;94.80
4739;DHT22;2383;48.632;10.156;2022-12-08T02:08:33;7.00;94.60
4739;DHT22;2383;48.632;10.156;2022-12-08T02:12:35;7.00;94.90
4739;DHT22;2383;48.632;10.156;2022-12-08T02:21:32;6.90;94.50
4739;DHT22;2383;48.632;10.156;2022-12-08T02:26:02;6.80;94.80
4739;DHT22;2383;48.632;10.156;2022-12-08T02:30:32;6.80;94.60
4739;DHT22;2383;48.632;10.156;2022-12-08T02:38:59;6.60;94.40
4739;DHT22;2383;48.632;10.156;2022-12-08T02:43:20;6.60;94.40
4739;DHT22;2383;48.632;10.156;2022-12-08T02:47:24;6.90;94.60
4739;DHT22;2383;48.632;10.156;2022-12-08T02:51:28;6.60;94.60
4739;DHT22;2383;48.632;10.156;2022-12-08T02:55:53;6.60;94.50
4739;DHT22;2383;48.632;10.156;2022-12-08T03:08:56;6.20;94.70
4739;DHT22;2383;48.632;10.156;2022-12-08T03:13:20;6.30;94.20
4739;DHT22;2383;48.632;10.156;2022-12-08T03:17:25;6.30;94.40
4739;DHT22;2383;48.632;10.156;2022-12-08T03:21:30;6.20;94.20
4739;DHT22;2383;48.632;10.156;2022-12-08T03:25:35;6.30;94.10
4739;DHT22;2383;48.632;10.156;2022-12-08T03:29:40;6.10;93.90
4739;DHT22;2383;48.632;10.156;2022-12-08T03:33:44;6.00;94.10
4739;DHT22;2383;48.632;10.156;2022-12-08T03:37:49;5.90;94.30
4739;DHT22;2383;48.632;10.156;2022-12-08T03:41:51;5.80;94.00
4739;DHT22;2383;48.632;10.156;2022-12-08T03:45:53;5.80;94.20
4739;DHT22;2383;48.632;10.156;2022-12-08T03:49:55;5.90;94.30
4739;DHT22;2383;48.632;10.156;2022-12-08T03:53:57;6.10;94.20
4739;DHT22;2383;48.632;10.156;2022-12-08T03:57:58;6.00;93.70
4739;DHT22;2383;48.632;10.156;2022-12-08T04:02:00;6.00;93.60
4739;DHT22;2383;48.632;10.156;2022-12-08T04:06:02;5.90;93.80
4739;DHT22;2383;48.632;10.156;2022-12-08T04:10:04;5.80;93.90
4739;DHT22;2383;48.632;10.156;2022-12-08T04:14:07;5.80;93.40
4739;DHT22;2383;48.632;10.156;2022-12-08T04:18:08;5.60;93.40
4739;DHT22;2383;48.632;10.156;2022-12-08T04:22:10;5.70;93.50
4739;DHT22;2383;48.632;10.156;2022-12-08T04:26:12;5.70;93.30
4739;DHT22;2383;48.632;10.156;2022-12-08T04:30:14;5.70;93.50
4739;DHT22;2383;48.632;10.156;2022-12-08T04:34:15;5.50;93.10
4739;DHT22;2383;48.632;10.156;2022-12-08T04:38:17;5.50;93.30
4739;DHT22;2383;48.632;10.156;2022-12-08T04:42:19;5.50;93.40
4739;DHT22;2383;48.632;10.156;2022-12-08T04:46:20;5.50;93.50
4739;DHT22;2383;48.632;10.156;2022-12-08T04:50:22;5.40;93.20
4739;DHT22;2383;48.632;10.156;2022-12-08T04:54:24;5.40;93.20
4739;DHT22;2383;48.632;10.156;2022-12-08T04:58:25;5.30;93.40
4739;DHT22;2383;48.632;10.156;2022-12-08T05:02:27;5.30;93.40
4739;DHT22;2383;48.632;10.156;2022-12-08T05:06:29;5.40;93.40
4739;DHT22;2383;48.632;10.156;2022-12-08T05:10:31;5.30;93.20
4739;DHT22;2383;48.632;10.156;2022-12-08T05:14:33;5.30;92.90
4739;DHT22;2383;48.632;10.156;2022-12-08T05:18:35;5.20;92.80
4739;DHT22;2383;48.632;10.156;2022-12-08T05:22:36;5.10;93.10
4739;DHT22;2383;48.632;10.156;2022-12-08T05:26:38;5.00;92.90
4739;DHT22;2383;48.632;10.156;2022-12-08T05:30:40;4.90;93.10
4739;DHT22;2383;48.632;10.156;2022-12-08T05:34:42;4.90;92.90
4739;DHT22;2383;48.632;10.156;2022-12-08T05:38:44;5.10;92.90
4739;DHT22;2383;48.632;10.156;2022-12-08T05:42:46;4.90;93.00
4739;DHT22;2383;48.632;10.156;2022-12-08T05:46:47;4.70;93.40
4739;DHT22;2383;48.632;10.156;2022-12-08T05:50:50;5.10;93.00
4739;DHT22;2383;48.632;10.156;2022-12-08T05:54:51;4.90;93.00
4739;DHT22;2383;48.632;10.156;2022-12-08T05:58:53;5.10;92.90
4739;DHT22;2383;48.632;10.156;2022-12-08T06:02:55;5.00;92.60
4739;DHT22;2383;48.632;10.156;2022-12-08T06:06:57;4.80;92.60
4739;DHT22;2383;48.632;10.156;2022-12-08T06:10:59;5.00;92.60
4739;DHT22;2383;48.632;10.156;2022-12-08T06:15:00;4.90;92.20
4739;DHT22;2383;48.632;10.156;2022-12-08T06:19:02;4.80;92.70
4739;DHT22;2383;48.632;10.156;2022-12-08T06:23:03;4.90;92.50
4739;DHT22;2383;48.632;10.156;2022-12-08T06:27:05;4.70;92.50
4739;DHT22;2383;48.632;10.156;2022-12-08T06:35:10;4.80;92.20
4739;DHT22;2383;48.632;10.156;2022-12-08T06:39:12;4.20;93.30
4739;DHT22;2383;48.632;10.156;2022-12-08T06:43:13;4.30;93.40
4739;DHT22;2383;48.632;10.156;2022-12-08T06:47:15;4.40;93.50
4739;DHT22;2383;48.632;10.156;2022-12-08T06:51:19;4.60;93.10
4739;DHT22;2383;48.632;10.156;2022-12-08T06:55:21;4.40;93.10
4739;DHT22;2383;48.632;10.156;2022-12-08T06:59:43;4.50;92.80
4739;DHT22;2383;48.632;10.156;2022-12-08T07:03:45;4.30;92.50
4739;DHT22;2383;48.632;10.156;2022-12-08T07:07:48;4.40;92.90
4739;DHT22;2383;48.632;10.156;2022-12-08T07:11:50;4.50;92.40
4739;DHT22;2383;48.632;10.156;2022-12-08T07:15:51;4.40;92.30
4739;DHT22;2383;48.632;10.156;2022-12-08T07:19:53;4.30;92.40
4739;DHT22;2383;48.632;10.156;2022-12-08T07:23:55;4.20;92.70
4739;DHT22;2383;48.632;10.156;2022-12-08T07:27:58;4.30;92.20
4739;DHT22;2383;48.632;10.156;2022-12-08T07:32:00;4.30;92.70
4739;DHT22;2383;48.632;10.156;2022-12-08T07:36:04;4.20;92.70
4739;DHT22;2383;48.632;10.156;2022-12-08T07:40:07;4.40;92.90
4739;DHT22;2383;48.632;10.156;2022-12-08T07:44:10;4.60;92.90
4739;DHT22;2383;48.632;10.156;2022-12-08T07:48:12;4.50;93.20
4739;DHT22;2383;48.632;10.156;2022-12-08T07:52:13;4.70;93.10
4739;DHT22;2383;48.632;10.156;2022-12-08T07:56:15;4.60;93.10
4739;DHT22;2383;48.632;10.156;2022-12-08T08:00:18;4.60;93.30
4739;DHT22;2383;48.632;10.156;2022-12-08T08:04:20;4.60;93.40
4739;DHT22;2383;48.632;10.156;2022-12-08T08:08:22;4.60;93.50
4739;DHT22;2383;48.632;10.156;2022-12-08T08:12:23;4.50;93.40
4739;DHT22;2383;48.632;10.156;2022-12-08T08:16:33;4.40;93.80
4739;DHT22;2383;48.632;10.156;2022-12-08T08:20:39;4.40;93.90
4739;DHT22;2383;48.632;10.156;2022-12-08T08:24:41;4.70;93.70
4739;DHT22;2383;48.632;10.156;2022-12-08T08:28:46;4.80;93.50
4739;DHT22;2383;48.632;10.156;2022-12-08T08:32:48;4.90;93.40
4739;DHT22;2383;48.632;10.156;2022-12-08T08:36:50;5.00;93.30
4739;DHT22;2383;48.632;10.156;2022-12-08T08:40:52;5.20;93.40
4739;DHT22;2383;48.632;10.156;2022-12-08T08:44:54;5.10;93.60
4739;DHT22;2383;48.632;10.156;2022-12-08T08:48:56;5.30;93.60
4739;DHT22;2383;48.632;10.156;2022-12-08T08:52:57;5.30;93.70
4739;DHT22;2383;48.632;10.156;2022-12-08T08:57:00;5.40;93.50
4739;DHT22;2383;48.632;10.156;2022-12-08T09:01:02;5.40;93.80
4739;DHT22;2383;48.632;10.156;2022-12-08T09:05:05;5.50;93.90
4739;DHT22;2383;48.632;10.156;2022-12-08T09:09:07;5.60;93.80
4739;DHT22;2383;48.632;10.156;2022-12-08T09:13:09;5.70;94.00
4739;DHT22;2383;48.632;10.156;2022-12-08T09:17:10;5.70;94.00
4739;DHT22;2383;48.632;10.156;2022-12-08T09:21:14;5.80;94.00
4739;DHT22;2383;48.632;10.156;2022-12-08T09:25:17;5.90;94.10
4739;DHT22;2383;48.632;10.156;2022-12-08T09:29:18;6.00;94.30
4739;DHT22;2383;48.632;10.156;2022-12-08T09:33:20;5.90;94.40
4739;DHT22;2383;48.632;10.156;2022-12-08T09:37:22;5.90;94.50
4739;DHT22;2383;48.632;10.156;2022-12-08T09:45:41;6.00;94.50
4739;DHT22;2383;48.632;10.156;2022-12-08T09:49:50;6.10;94.30
4739;DHT22;2383;48.632;10.156;2022-12-08T09:54:11;6.20;94.40
4739;DHT22;2383;48.632;10.156;2022-12-08T10:02:38;6.30;94.30
4739;DHT22;2383;48.632;10.156;2022-12-08T10:06:47;6.30;94.60
4739;DHT22;2383;48.632;10.156;2022-12-08T10:10:57;6.40;94.70
4739;DHT22;2383;48.632;10.156;2022-12-08T10:19:20;6.60;94.80
4739;DHT22;2383;48.632;10.156;2022-12-08T10:23:37;6.80;94.80
4739;DHT22;2383;48.632;10.156;2022-12-08T10:27:40;6.90;94.70
4739;DHT22;2383;48.632;10.156;2022-12-08T10:31:41;6.90;94.70
4739;DHT22;2383;48.632;10.156;2022-12-08T10:35:53;6.90;95.00
4739;DHT22;2383;48.632;10.156;2022-12-08T10:44:02;7.20;94.90
4739;DHT22;2383;48.632;10.156;2022-12-08T10:52:23;7.50;94.90
4739;DHT22;2383;48.632;10.156;2022-12-08T10:56:27;7.50;95.00
4739;DHT22;2383;48.632;10.156;2022-12-08T11:00:29;7.70;95.10
4739;DHT22;2383;48.632;10.156;2022-12-08T11:04:37;7.80;95.10
4739;DHT22;2383;48.632;10.156;2022-12-08T11:08:48;7.60;95.10
4739;DHT22;2383;48.632;10.156;2022-12-08T11:12:50;7.70;95.30
4739;DHT22;2383;48.632;10.156;2022-12-08T11:16:55;7.90;95.20
4739;DHT22;2383;48.632;10.156;2022-12-08T11:21:15;7.70;95.30
4739;DHT22;2383;48.632;10.156;2022-12-08T11:25:23;7.70;95.50
4739;DHT22;2383;48.632;10.156;2022-12-08T11:29:30;7.80;95.50
4739;DHT22;2383;48.632;10.156;2022-12-08T11:33:33;8.00;95.40
4739;DHT22;2383;48.632;10.156;2022-12-08T11:37:39;7.90;95.30
4739;DHT22;2383;48.632;10.156;2022-12-08T11:41:41;7.90;95.40
4739;DHT22;2383;48.632;10.156;2022-12-08T11:45:45;8.20;95.10
4739;DHT22;2383;48.632;10.156;2022-12-08T11:49:54;8.50;94.70
4739;DHT22;2383;48.632;10.156;2022-12-08T11:54:31;8.40;94.70
4739;DHT22;2383;48.632;10.156;2022-12-08T11:58:41;8.60;94.60
4739;DHT22;2383;48.632;10.156;2022-12-08T12:02:49;8.70;93.90
4739;DHT22;2383;48.632;10.156;2022-12-08T12:20:34;8.70;94.10
4739;DHT22;2383;48.632;10.156;2022-12-08T12:24:38;8.70;94.00
4739;DHT22;2383;48.632;10.156;2022-12-08T12:28:43;8.60;93.40
4739;DHT22;2383;48.632;10.156;2022-12-08T12:32:59;7.90;94.20
4739;DHT22;2383;48.632;10.156;2022-12-08T12:37:14;8.20;94.10
4739;DHT22;2383;48.632;10.156;2022-12-08T12:41:25;8.40;93.90
4739;DHT22;2383;48.632;10.156;2022-12-08T12:45:32;8.40;93.80
4739;DHT22;2383;48.632;10.156;2022-12-08T12:57:53;8.30;94.10
4739;DHT22;2383;48.632;10.156;2022-12-08T13:01:55;8.00;94.40
4739;DHT22;2383;48.632;10.156;2022-12-08T13:05:58;8.10;94.70
4739;DHT22;2383;48.632;10.156;2022-12-08T13:10:12;8.50;94.50
4739;DHT22;2383;48.632;10.156;2022-12-08T13:14:44;8.80;94.20
4739;DHT22;2383;48.632;10.156;2022-12-08T13:18:51;8.90;94.00
4739;DHT22;2383;48.632;10.156;2022-12-08T13:23:02;9.00;94.00
4739;DHT22;2383;48.632;10.156;2022-12-08T13:40:23;8.60;94.30
4739;DHT22;2383;48.632;10.156;2022-12-08T13:44:31;8.80;93.80
4739;DHT22;2383;48.632;10.156;2022-12-08T13:48:56;8.70;94.10
4739;DHT22;2383;48.632;10.156;2022-12-08T13:53:23;8.30;94.90
4739;DHT22;2383;48.632;10.156;2022-12-08T13:57:49;8.30;95.10
4739;DHT22;2383;48.632;10.156;2022-12-08T14:01:51;8.10;95.00
4739;DHT22;2383;48.632;10.156;2022-12-08T14:05:53;7.90;95.20
4739;DHT22;2383;48.632;10.156;2022-12-08T14:10:23;8.00;95.10
4739;DHT22;2383;48.632;10.156;2022-12-08T14:14:27;8.00;95.00
4739;DHT22;2383;48.632;10.156;2022-12-08T14:18:50;8.10;94.90
4739;DHT22;2383;48.632;10.156;2022-12-08T14:22:52;8.10;94.90
4739;DHT22;2383;48.632;10.156;2022-12-08T14:27:00;8.20;94.90
4739;DHT22;2383;48.632;10.156;2022-12-08T14:31:02;8.30;94.90
4739;DHT22;2383;48.632;10.156;2022-12-08T14:39:09;8.20;94.90
4739;DHT22;2383;48.632;10.156;2022-12-08T14:43:14;8.30;94.90
4739;DHT22;2383;48.632;10.156;2022-12-08T14:47:18;8.40;94.80
4739;DHT22;2383;48.632;10.156;2022-12-08T14:51:28;8.30;94.70
4739;DHT22;2383;48.632;10.156;2022-12-08T14:55:35;8.30;94.60
4739;DHT22;2383;48.632;10.156;2022-12-08T14:59:38;8.30;94.50
4739;DHT22;2383;48.632;10.156;2022-12-08T15:03:42;8.10;94.70
4739;DHT22;2383;48.632;10.156;2022-12-08T15:07:53;8.30;94.80
4739;DHT22;2383;48.632;10.156;2022-12-08T15:16:38;8.30;94.80
4739;DHT22;2383;48.632;10.156;2022-12-08T15:20:51;8.20;94.70
4739;DHT22;2383;48.632;10.156;2022-12-08T15:24:54;8.20;94.90
4739;DHT22;2383;48.632;10.156;2022-12-08T15:28:56;8.30;94.90
4739;DHT22;2383;48.632;10.156;2022-12-08T15:32:58;8.10;94.80
4739;DHT22;2383;48.632;10.156;2022-12-08T15:37:02;8.30;94.90
4739;DHT22;2383;48.632;10.156;2022-12-08T15:41:05;8.20;95.00
4739;DHT22;2383;48.632;10.156;2022-12-08T15:45:14;8.30;95.00
4739;DHT22;2383;48.632;10.156;2022-12-08T15:49:21;8.00;95.30
4739;DHT22;2383;48.632;10.156;2022-12-08T15:53:24;8.10;95.40
4739;DHT22;2383;48.632;10.156;2022-12-08T15:57:28;8.10;95.50
4739;DHT22;2383;48.632;10.156;2022-12-08T16:01:51;8.20;95.40
4739;DHT22;2383;48.632;10.156;2022-12-08T16:05:54;8.20;95.30
4739;DHT22;2383;48.632;10.156;2022-12-08T16:10:22;8.10;95.40
4739;DHT22;2383;48.632;10.156;2022-12-08T16:14:25;7.90;95.40
4739;DHT22;2383;48.632;10.156;2022-12-08T16:18:48;8.00;95.50
4739;DHT22;2383;48.632;10.156;2022-12-08T16:22:50;8.10;95.50
4739;DHT22;2383;48.632;10.156;2022-12-08T16:27:22;8.20;95.40
4739;DHT22;2383;48.632;10.156;2022-12-08T16:31:44;8.00;95.40
4739;DHT22;2383;48.632;10.156;2022-12-08T16:35:46;8.00;95.20
4739;DHT22;2383;48.632;10.156;2022-12-08T16:39:49;8.00;95.30
4739;DHT22;2383;48.632;10.156;2022-12-08T16:43:51;8.00;95.20
4739;DHT22;2383;48.632;10.156;2022-12-08T16:47:54;8.00;95.20
4739;DHT22;2383;48.632;10.156;2022-12-08T16:51:56;8.00;95.00
4739;DHT22;2383;48.632;10.156;2022-12-08T16:55:57;8.00;95.00
4739;DHT22;2383;48.632;10.156;2022-12-08T16:59:59;7.90;95.10
4739;DHT22;2383;48.632;10.156;2022-12-08T17:04:01;7.80;95.10
4739;DHT22;2383;48.632;10.156;2022-12-08T17:08:23;7.80;95.00
4739;DHT22;2383;48.632;10.156;2022-12-08T17:12:24;7.90;94.90
4739;DHT22;2383;48.632;10.156;2022-12-08T17:16:26;7.40;95.30
4739;DHT22;2383;48.632;10.156;2022-12-08T17:20:28;7.60;95.30
4739;DHT22;2383;48.632;10.156;2022-12-08T17:24:30;7.60;95.20
4739;DHT22;2383;48.632;10.156;2022-12-08T17:28:32;7.60;95.30
4739;DHT22;2383;48.632;10.156;2022-12-08T17:32:53;7.50;94.90
4739;DHT22;2383;48.632;10.156;2022-12-08T17:36:55;7.90;95.00
4739;DHT22;2383;48.632;10.156;2022-12-08T17:41:01;7.80;95.00
4739;DHT22;2383;48.632;10.156;2022-12-08T17:45:05;7.90;95.00
4739;DHT22;2383;48.632;10.156;2022-12-08T17:49:09;7.90;95.00
4739;DHT22;2383;48.632;10.156;2022-12-08T17:53:11;7.90;94.90
4739;DHT22;2383;48.632;10.156;2022-12-08T17:57:13;7.90;95.00
4739;DHT22;2383;48.632;10.156;2022-12-08T18:01:14;7.90;95.00
4739;DHT22;2383;48.632;10.156;2022-12-08T18:05:16;7.90;95.10
4739;DHT22;2383;48.632;10.156;2022-12-08T18:09:18;7.90;95.10
4739;DHT22;2383;48.632;10.156;2022-12-08T18:13:20;8.00;94.90
4739;DHT22;2383;48.632;10.156;2022-12-08T18:17:21;7.90;94.70
4739;DHT22;2383;48.632;10.156;2022-12-08T18:21:23;7.90;94.70
4739;DHT22;2383;48.632;10.156;2022-12-08T18:25:25;7.90;95.10
4739;DHT22;2383;48.632;10.156;2022-12-08T18:29:26;7.90;94.50
4739;DHT22;2383;48.632;10.156;2022-12-08T18:33:28;8.00;94.30
4739;DHT22;2383;48.632;10.156;2022-12-08T18:37:30;7.80;93.90
4739;DHT22;2383;48.632;10.156;2022-12-08T18:41:31;7.20;94.40
4739;DHT22;2383;48.632;10.156;2022-12-08T18:45:33;7.30;94.70
4739;DHT22;2383;48.632;10.156;2022-12-08T18:49:37;7.60;94.60
4739;DHT22;2383;48.632;10.156;2022-12-08T18:53:39;7.40;94.20
4739;DHT22;2383;48.632;10.156;2022-12-08T18:57:42;7.50;94.60
4739;DHT22;2383;48.632;10.156;2022-12-08T19:01:43;7.60;94.70
4739;DHT22;2383;48.632;10.156;2022-12-08T19:05:45;7.70;94.30
4739;DHT22;2383;48.632;10.156;2022-12-08T19:09:47;7.60;94.50
4739;DHT22;2383;48.632;10.156;2022-12-08T19:13:49;7.90;94.20
4739;DHT22;2383;48.632;10.156;2022-12-08T19:17:51;7.80;94.30
4739;DHT22;2383;48.632;10.156;2022-12-08T19:21:53;7.80;93.80
4739;DHT22;2383;48.632;10.156;2022-12-08T19:25:54;7.50;93.80
4739;DHT22;2383;48.632;10.156;2022-12-08T19:29:56;7.50;93.60
4739;DHT22;2383;48.632;10.156;2022-12-08T19:33:58;7.60;93.60
4739;DHT22;2383;48.632;10.156;2022-12-08T19:37:59;7.60;93.50
4739;DHT22;2383;48.632;10.156;2022-12-08T19:42:02;7.40;93.70
4739;DHT22;2383;48.632;10.156;2022-12-08T19:46:22;7.30;93.90
4739;DHT22;2383;48.632;10.156;2022-12-08T19:50:25;7.30;93.70
4739;DHT22;2383;48.632;10.156;2022-12-08T19:54:36;7.20;93.70
4739;DHT22;2383;48.632;10.156;2022-12-08T19:58:38;7.20;93.60
4739;DHT22;2383;48.632;10.156;2022-12-08T20:02:40;7.20;93.50
4739;DHT22;2383;48.632;10.156;2022-12-08T20:06:42;7.10;93.40
4739;DHT22;2383;48.632;10.156;2022-12-08T20:10:45;6.90;93.60
4739;DHT22;2383;48.632;10.156;2022-12-08T20:14:47;6.80;93.60
4739;DHT22;2383;48.632;10.156;2022-12-08T20:18:49;6.70;93.50
4739;DHT22;2383;48.632;10.156;2022-12-08T20:22:51;6.60;92.80
4739;DHT22;2383;48.632;10.156;2022-12-08T20:26:53;6.60;92.60
4739;DHT22;2383;48.632;10.156;2022-12-08T20:30:54;6.80;92.50
4739;DHT22;2383;48.632;10.156;2022-12-08T20:34:56;6.70;92.40
4739;DHT22;2383;48.632;10.156;2022-12-08T20:38:58;6.60;92.60
4739;DHT22;2383;48.632;10.156;2022-12-08T20:43:00;6.50;92.80
4739;DHT22;2383;48.632;10.156;2022-12-08T20:47:02;6.60;92.60
4739;DHT22;2383;48.632;10.156;2022-12-08T20:51:04;6.50;92.60
4739;DHT22;2383;48.632;10.156;2022-12-08T20:55:06;6.40;92.40
4739;DHT22;2383;48.632;10.156;2022-12-08T20:59:16;6.30;92.70
4739;DHT22;2383;48.632;10.156;2022-12-08T21:03:18;6.30;92.60
4739;DHT22;2383;48.632;10.156;2022-12-08T21:07:20;6.20;92.70
4739;DHT22;2383;48.632;10.156;2022-12-08T21:11:22;6.10;92.60
4739;DHT22;2383;48.632;10.156;2022-12-08T21:15:24;6.00;92.10
4739;DHT22;2383;48.632;10.156;2022-12-08T21:19:26;6.10;91.90
4739;DHT22;2383;48.632;10.156;2022-12-08T21:23:27;6.10;91.90
4739;DHT22;2383;48.632;10.156;2022-12-08T21:27:29;6.10;91.60
4739;DHT22;2383;48.632;10.156;2022-12-08T21:31:31;6.10;91.40
4739;DHT22;2383;48.632;10.156;2022-12-08T21:35:34;5.90;91.70
4739;DHT22;2383;48.632;10.156;2022-12-08T21:39:35;5.90;92.00
4739;DHT22;2383;48.632;10.156;2022-12-08T21:43:38;5.90;91.90
4739;DHT22;2383;48.632;10.156;2022-12-08T21:47:40;5.80;91.90
4739;DHT22;2383;48.632;10.156;2022-12-08T21:51:42;5.70;91.80
4739;DHT22;2383;48.632;10.156;2022-12-08T21:55:44;5.70;92.10
4739;DHT22;2383;48.632;10.156;2022-12-08T21:59:46;5.70;91.90
4739;DHT22;2383;48.632;10.156;2022-12-08T22:03:48;5.50;92.10
4739;DHT22;2383;48.632;10.156;2022-12-08T22:07:50;5.60;92.10
4739;DHT22;2383;48.632;10.156;2022-12-08T22:11:52;5.40;92.20
4739;DHT22;2383;48.632;10.156;2022-12-08T22:15:58;5.60;91.80
4739;DHT22;2383;48.632;10.156;2022-12-08T22:20:01;5.50;91.90
4739;DHT22;2383;48.632;10.156;2022-12-08T22:24:03;5.30;92.00
4739;DHT22;2383;48.632;10.156;2022-12-08T22:28:05;5.20;92.10
4739;DHT22;2383;48.632;10.156;2022-12-08T22:32:06;5.30;91.80
4739;DHT22;2383;48.632;10.156;2022-12-08T22:36:35;5.30;91.70
4739;DHT22;2383;48.632;10.156;2022-12-08T22:40:39;5.10;91.70
4739;DHT22;2383;48.632;10.156;2022-12-08T22:44:41;5.10;91.60
4739;DHT22;2383;48.632;10.156;2022-12-08T22:48:43;4.80;92.10
4739;DHT22;2383;48.632;10.156;2022-12-08T22:52:45;4.90;91.80
4739;DHT22;2383;48.632;10.156;2022-12-08T22:56:47;5.00;92.00
4739;DHT22;2383;48.632;10.156;2022-12-08T23:00:49;5.00;91.80
4739;DHT22;2383;48.632;10.156;2022-12-08T23:04:54;4.90;91.60
4739;DHT22;2383;48.632;10.156;2022-12-08T23:08:57;4.90;91.70
4739;DHT22;2383;48.632;10.156;2022-12-08T23:12:59;4.80;91.60
4739;DHT22;2383;48.632;10.156;2022-12-08T23:17:04;4.80;91.70
4739;DHT22;2383;48.632;10.156;2022-12-08T23:21:10;4.80;91.70
4739;DHT22;2383;48.632;10.156;2022-12-08T23:25:12;4.70;91.50
4739;DHT22;2383;48.632;10.156;2022-12-08T23:29:14;4.60;91.70
4739;DHT22;2383;48.632;10.156;2022-12-08T23:33:16;4.60;92.00
4739;DHT22;2383;48.632;10.156;2022-12-08T23:37:18;4.70;91.90
4739;DHT22;2383;48.632;10.156;2022-12-08T23:41:21;4.80;91.70
4739;DHT22;2383;48.632;10.156;2022-12-08T23:45:23;4.80;91.70
4739;DHT22;2383;48.632;10.156;2022-12-08T23:49:24;4.70;91.80
4739;DHT22;2383;48.632;10.156;2022-12-08T23:53:31;4.60;91.90
4739;DHT22;2383;48.632;10.156;2022-12-08T23:57:34;4.80;91.90
